CheckWX is a tool to help pilots better visualize weather data.  It is not intended as a substitute for an official pre-flight weather briefing.

08:03:43 UTC

RJFK TAF
Kagoshima Airport
Kagoshima, Japan
TAF RJFK 190508Z 1906/2012 33018KT 9999 FEW030 TEMPO 1906/1908 33018G30KT BECMG 1908/1910 34005KT BECMG 1921/2000 14006KT

Mar-19@
06:00 UTC

Mar-19 @ 06:00 UTC

Mar-19@
08:00 UTC

Mar-19 @ 08:00 UTC

TAF RJFK 190508Z 1906/2012 33018KT 9999 FEW030

Expired

Wind
  • 330° at 18 KTS
Cloud Levels
  • Few at 3,000' AGL

Mar-19@
06:00 UTC

Mar-19 @ 06:00 UTC

Mar-19@
08:00 UTC

Mar-19 @ 08:00 UTC

TEMPO 1906/1908 33018G30KT

Expired

Wind
  • 330° at 18 KTS
  • {Gusting to 30 KTS

Mar-19@
08:00 UTC

Mar-19 @ 08:00 UTC

Mar-19@
21:00 UTC

Mar-19 @ 21:00 UTC

BECMG 1908/1910 34005KT

Becoming

Becoming Conditions expected by Tue, Mar 19, 2019 @ 10:00 UTC

Wind
  • 340° at 5 KTS
Cloud Levels
  • Few at 3,000' AGL

Mar-19@
21:00 UTC

Mar-19 @ 21:00 UTC

Mar-20@
12:00 UTC

Mar-20 @ 12:00 UTC

BECMG 1921/2000 14006KT

Becoming

Becoming Conditions expected by Wed, Mar 20, 2019 @ 00:00 UTC

Wind
  • 140° at 6 KTS
Cloud Levels
  • Few at 3,000' AGL